New Perlican, Canada
Current Conditions -  °F | °C
As of 2:00 AM on Saturday 20 Dec 2014 (Local Time) from CYYT Reporting Station
Overcast Overcast  
Wind Chill: 24°   Ceiling: 1500
Heat Index: 32°   Visibility: 15mi
Dew Point: 30°   Wind: 10mph
Humidity: 93%   Direction: 350°N
Pressure: 29.82"   Gusts: NA
Location:  47.92°N, 53.37°W
Report Text: CYYT 200500Z 35009KT 15SM BKN015 OVC032 00/M01 A2982 RMK SC6SC2 SLP105
Loading
Personal Weather Stations






























Interactive Weather Map New forecast layout! Learn more

10-Day Weather Forecast

Advertisements
Track Severe Weather on mobile